Terminal Aerodrome Forecast
Issued by NWS

Home | Current Version | Previous Version | Text Only | Print | Product List | Glossary On
Versions: 1 2 3 4 5 6 7 8 9 10 11 12 13 14
000
FTUS41 KCLE 070757 AAA
TAFFDY
TAF AMD
KFDY 070757Z 0708/0806 18008KT 6SM BR SCT040 OVC250
      TEMPO 0708/0711 4SM BR
     FM071400 22012KT P6SM VCSH SCT020 BKN040 OVC080
      TEMPO 0714/0717 BKN020 OVC040
     FM071700 24010G20KT P6SM -SHRA VCTS OVC040CB
     FM072200 31010KT 3SM -SHRA BR OVC007
     FM080200 35008KT 6SM BR BKN015 OVC020=

USA.gov is the U.S. government's official web portal to all federal, state and local government web resources and services.